sensor_id;sensor_type;location;lat;lon;timestamp;temperature;humidity
75685;HTU21D;64298;46.050;38.164;2023-02-01T00:01:07;2.46;83.94
75685;HTU21D;64298;46.050;38.164;2023-02-01T00:03:33;2.41;83.88
75685;HTU21D;64298;46.050;38.164;2023-02-01T00:06:00;2.37;83.93
75685;HTU21D;64298;46.050;38.164;2023-02-01T00:08:26;2.29;83.74
75685;HTU21D;64298;46.050;38.164;2023-02-01T00:11:07;2.26;83.97
75685;HTU21D;64298;46.050;38.164;2023-02-01T00:13:35;2.28;83.93
75685;HTU21D;64298;46.050;38.164;2023-02-01T00:16:08;2.29;84.03
75685;HTU21D;64298;46.050;38.164;2023-02-01T00:18:35;2.36;83.99
75685;HTU21D;64298;46.050;38.164;2023-02-01T00:21:02;2.36;83.84
75685;HTU21D;64298;46.050;38.164;2023-02-01T00:23:28;2.34;83.78
75685;HTU21D;64298;46.050;38.164;2023-02-01T00:25:54;2.28;83.77
75685;HTU21D;64298;46.050;38.164;2023-02-01T00:28:20;2.28;83.85
75685;HTU21D;64298;46.050;38.164;2023-02-01T00:30:45;2.30;83.87
75685;HTU21D;64298;46.050;38.164;2023-02-01T00:33:11;2.32;83.86
75685;HTU21D;64298;46.050;38.164;2023-02-01T00:35:37;2.35;83.78
75685;HTU21D;64298;46.050;38.164;2023-02-01T00:38:03;2.39;83.75
75685;HTU21D;64298;46.050;38.164;2023-02-01T00:40:29;2.40;83.73
75685;HTU21D;64298;46.050;38.164;2023-02-01T00:42:55;2.42;83.62
75685;HTU21D;64298;46.050;38.164;2023-02-01T00:45:22;2.41;83.55
75685;HTU21D;64298;46.050;38.164;2023-02-01T00:47:48;2.39;83.45
75685;HTU21D;64298;46.050;38.164;2023-02-01T00:50:15;2.37;83.39
75685;HTU21D;64298;46.050;38.164;2023-02-01T00:52:41;2.32;83.29
75685;HTU21D;64298;46.050;38.164;2023-02-01T00:55:07;2.29;83.36
75685;HTU21D;64298;46.050;38.164;2023-02-01T00:57:33;2.30;83.43
75685;HTU21D;64298;46.050;38.164;2023-02-01T00:59:59;2.35;83.48
75685;HTU21D;64298;46.050;38.164;2023-02-01T01:02:26;2.40;83.45
75685;HTU21D;64298;46.050;38.164;2023-02-01T01:04:53;2.43;83.39
75685;HTU21D;64298;46.050;38.164;2023-02-01T01:07:19;2.47;83.32
75685;HTU21D;64298;46.050;38.164;2023-02-01T01:09:45;2.50;83.23
75685;HTU21D;64298;46.050;38.164;2023-02-01T01:12:11;2.47;83.11
75685;HTU21D;64298;46.050;38.164;2023-02-01T01:14:36;2.49;83.17
75685;HTU21D;64298;46.050;38.164;2023-02-01T01:17:21;2.49;83.12
75685;HTU21D;64298;46.050;38.164;2023-02-01T01:19:46;2.49;83.04
75685;HTU21D;64298;46.050;38.164;2023-02-01T01:22:12;2.45;82.89
75685;HTU21D;64298;46.050;38.164;2023-02-01T01:24:38;2.44;83.01
75685;HTU21D;64298;46.050;38.164;2023-02-01T01:27:04;2.46;82.90
75685;HTU21D;64298;46.050;38.164;2023-02-01T01:29:30;2.44;82.89
75685;HTU21D;64298;46.050;38.164;2023-02-01T01:31:56;2.44;82.95
75685;HTU21D;64298;46.050;38.164;2023-02-01T01:34:22;2.46;82.91
75685;HTU21D;64298;46.050;38.164;2023-02-01T01:36:48;2.45;82.70
75685;HTU21D;64298;46.050;38.164;2023-02-01T01:39:14;2.38;82.50
75685;HTU21D;64298;46.050;38.164;2023-02-01T01:41:40;2.32;82.66
75685;HTU21D;64298;46.050;38.164;2023-02-01T01:45:00;2.30;82.71
75685;HTU21D;64298;46.050;38.164;2023-02-01T01:47:35;2.34;82.75
75685;HTU21D;64298;46.050;38.164;2023-02-01T01:50:06;2.36;82.78
75685;HTU21D;64298;46.050;38.164;2023-02-01T01:52:33;2.38;82.78
75685;HTU21D;64298;46.050;38.164;2023-02-01T01:55:00;2.38;82.58
75685;HTU21D;64298;46.050;38.164;2023-02-01T01:57:35;2.37;82.66
75685;HTU21D;64298;46.050;38.164;2023-02-01T02:00:21;2.38;82.65
75685;HTU21D;64298;46.050;38.164;2023-02-01T02:02:54;2.40;82.69
75685;HTU21D;64298;46.050;38.164;2023-02-01T02:05:23;2.43;82.69
75685;HTU21D;64298;46.050;38.164;2023-02-01T02:07:51;2.46;82.66
75685;HTU21D;64298;46.050;38.164;2023-02-01T02:10:19;2.46;82.52
75685;HTU21D;64298;46.050;38.164;2023-02-01T02:12:47;2.45;82.51
75685;HTU21D;64298;46.050;38.164;2023-02-01T02:15:15;2.44;82.49
75685;HTU21D;64298;46.050;38.164;2023-02-01T02:18:05;2.39;82.36
75685;HTU21D;64298;46.050;38.164;2023-02-01T02:21:01;2.36;82.52
75685;HTU21D;64298;46.050;38.164;2023-02-01T02:29:21;2.20;82.46
75685;HTU21D;64298;46.050;38.164;2023-02-01T02:32:21;2.12;82.45
75685;HTU21D;64298;46.050;38.164;2023-02-01T02:35:17;2.11;82.60
75685;HTU21D;64298;46.050;38.164;2023-02-01T02:41:27;2.02;82.47
75685;HTU21D;64298;46.050;38.164;2023-02-01T02:47:15;2.03;82.76
75685;HTU21D;64298;46.050;38.164;2023-02-01T02:50:26;2.09;82.81
75685;HTU21D;64298;46.050;38.164;2023-02-01T02:53:23;2.11;82.74
75685;HTU21D;64298;46.050;38.164;2023-02-01T02:56:10;2.10;82.64
75685;HTU21D;64298;46.050;38.164;2023-02-01T02:59:16;2.09;82.65
75685;HTU21D;64298;46.050;38.164;2023-02-01T03:02:02;2.07;82.56
75685;HTU21D;64298;46.050;38.164;2023-02-01T03:04:46;2.06;82.55
75685;HTU21D;64298;46.050;38.164;2023-02-01T03:10:32;2.08;82.55
75685;HTU21D;64298;46.050;38.164;2023-02-01T03:13:06;2.10;82.57
75685;HTU21D;64298;46.050;38.164;2023-02-01T03:18:41;2.12;82.41
75685;HTU21D;64298;46.050;38.164;2023-02-01T03:21:13;2.10;82.27
75685;HTU21D;64298;46.050;38.164;2023-02-01T03:23:40;2.10;82.42
75685;HTU21D;64298;46.050;38.164;2023-02-01T03:26:11;2.10;82.39
75685;HTU21D;64298;46.050;38.164;2023-02-01T03:29:13;2.08;82.31
75685;HTU21D;64298;46.050;38.164;2023-02-01T03:31:42;2.07;82.35
75685;HTU21D;64298;46.050;38.164;2023-02-01T03:34:08;2.09;82.40
75685;HTU21D;64298;46.050;38.164;2023-02-01T03:36:43;2.11;82.41
75685;HTU21D;64298;46.050;38.164;2023-02-01T03:42:23;2.16;82.32
75685;HTU21D;64298;46.050;38.164;2023-02-01T03:44:54;2.17;82.29
75685;HTU21D;64298;46.050;38.164;2023-02-01T03:47:25;2.20;82.18
75685;HTU21D;64298;46.050;38.164;2023-02-01T03:50:00;2.13;82.20
75685;HTU21D;64298;46.050;38.164;2023-02-01T03:52:53;2.08;82.24
75685;HTU21D;64298;46.050;38.164;2023-02-01T03:55:22;2.06;82.33
75685;HTU21D;64298;46.050;38.164;2023-02-01T03:58:21;2.05;82.31
75685;HTU21D;64298;46.050;38.164;2023-02-01T04:00:55;2.03;82.33
75685;HTU21D;64298;46.050;38.164;2023-02-01T04:03:22;2.06;82.32
75685;HTU21D;64298;46.050;38.164;2023-02-01T04:05:49;2.06;82.30
75685;HTU21D;64298;46.050;38.164;2023-02-01T04:08:15;2.06;82.33
75685;HTU21D;64298;46.050;38.164;2023-02-01T04:10:41;2.08;82.33
75685;HTU21D;64298;46.050;38.164;2023-02-01T04:13:07;2.10;82.30
75685;HTU21D;64298;46.050;38.164;2023-02-01T04:15:33;2.11;82.28
75685;HTU21D;64298;46.050;38.164;2023-02-01T04:18:00;2.12;82.30
75685;HTU21D;64298;46.050;38.164;2023-02-01T04:20:26;2.13;82.26
75685;HTU21D;64298;46.050;38.164;2023-02-01T04:22:52;2.10;82.23
75685;HTU21D;64298;46.050;38.164;2023-02-01T04:25:18;2.07;82.20
75685;HTU21D;64298;46.050;38.164;2023-02-01T04:27:46;2.05;82.21
75685;HTU21D;64298;46.050;38.164;2023-02-01T04:30:12;2.02;82.22
75685;HTU21D;64298;46.050;38.164;2023-02-01T04:32:39;1.96;82.14
75685;HTU21D;64298;46.050;38.164;2023-02-01T04:35:06;1.95;82.21
75685;HTU21D;64298;46.050;38.164;2023-02-01T04:37:32;1.94;82.24
75685;HTU21D;64298;46.050;38.164;2023-02-01T04:39:58;1.93;82.27
75685;HTU21D;64298;46.050;38.164;2023-02-01T04:42:24;1.90;82.23
75685;HTU21D;64298;46.050;38.164;2023-02-01T04:44:50;1.88;82.27
75685;HTU21D;64298;46.050;38.164;2023-02-01T04:47:16;1.86;82.33
75685;HTU21D;64298;46.050;38.164;2023-02-01T04:49:42;1.90;82.38
75685;HTU21D;64298;46.050;38.164;2023-02-01T04:52:08;1.87;82.37
75685;HTU21D;64298;46.050;38.164;2023-02-01T04:54:34;1.90;82.37
75685;HTU21D;64298;46.050;38.164;2023-02-01T04:57:00;1.91;82.39
75685;HTU21D;64298;46.050;38.164;2023-02-01T04:59:26;1.91;82.35
75685;HTU21D;64298;46.050;38.164;2023-02-01T05:01:52;1.85;82.31
75685;HTU21D;64298;46.050;38.164;2023-02-01T05:04:18;1.85;82.37
75685;HTU21D;64298;46.050;38.164;2023-02-01T05:06:44;1.84;82.39
75685;HTU21D;64298;46.050;38.164;2023-02-01T05:09:10;1.83;82.43
75685;HTU21D;64298;46.050;38.164;2023-02-01T05:11:37;1.81;82.42
75685;HTU21D;64298;46.050;38.164;2023-02-01T05:14:22;1.82;82.41
75685;HTU21D;64298;46.050;38.164;2023-02-01T05:16:47;1.82;82.45
75685;HTU21D;64298;46.050;38.164;2023-02-01T05:19:13;1.83;82.46
75685;HTU21D;64298;46.050;38.164;2023-02-01T05:21:39;1.84;82.43
75685;HTU21D;64298;46.050;38.164;2023-02-01T05:24:07;1.84;82.48
75685;HTU21D;64298;46.050;38.164;2023-02-01T05:26:56;1.85;82.48
75685;HTU21D;64298;46.050;38.164;2023-02-01T05:29:22;1.86;82.48
75685;HTU21D;64298;46.050;38.164;2023-02-01T05:31:48;1.85;82.49
75685;HTU21D;64298;46.050;38.164;2023-02-01T05:34:16;1.90;82.50
75685;HTU21D;64298;46.050;38.164;2023-02-01T05:36:42;1.90;82.49
75685;HTU21D;64298;46.050;38.164;2023-02-01T05:39:08;1.91;82.50
75685;HTU21D;64298;46.050;38.164;2023-02-01T05:41:35;1.93;82.52
75685;HTU21D;64298;46.050;38.164;2023-02-01T05:44:02;1.91;82.46
75685;HTU21D;64298;46.050;38.164;2023-02-01T05:46:28;1.91;82.50
75685;HTU21D;64298;46.050;38.164;2023-02-01T05:48:54;1.90;82.52
75685;HTU21D;64298;46.050;38.164;2023-02-01T05:51:20;1.90;82.51
75685;HTU21D;64298;46.050;38.164;2023-02-01T05:53:46;1.90;82.49
75685;HTU21D;64298;46.050;38.164;2023-02-01T05:56:12;1.92;82.51
75685;HTU21D;64298;46.050;38.164;2023-02-01T05:58:38;1.90;82.53
75685;HTU21D;64298;46.050;38.164;2023-02-01T06:01:04;1.86;82.57
75685;HTU21D;64298;46.050;38.164;2023-02-01T06:03:30;1.86;82.61
75685;HTU21D;64298;46.050;38.164;2023-02-01T06:05:56;1.87;82.62
75685;HTU21D;64298;46.050;38.164;2023-02-01T06:08:21;1.85;82.60
75685;HTU21D;64298;46.050;38.164;2023-02-01T06:10:51;1.84;82.63
75685;HTU21D;64298;46.050;38.164;2023-02-01T06:13:22;1.88;82.66
75685;HTU21D;64298;46.050;38.164;2023-02-01T06:15:48;1.92;82.75
75685;HTU21D;64298;46.050;38.164;2023-02-01T06:18:14;1.94;82.71
75685;HTU21D;64298;46.050;38.164;2023-02-01T06:20:41;1.96;82.74
75685;HTU21D;64298;46.050;38.164;2023-02-01T06:23:07;1.99;82.67
75685;HTU21D;64298;46.050;38.164;2023-02-01T06:25:33;1.98;82.58
75685;HTU21D;64298;46.050;38.164;2023-02-01T06:28:02;1.98;82.62
75685;HTU21D;64298;46.050;38.164;2023-02-01T06:30:31;1.98;82.48
75685;HTU21D;64298;46.050;38.164;2023-02-01T06:32:57;1.93;82.46
75685;HTU21D;64298;46.050;38.164;2023-02-01T06:35:23;1.92;82.53
75685;HTU21D;64298;46.050;38.164;2023-02-01T06:37:49;1.91;82.55
75685;HTU21D;64298;46.050;38.164;2023-02-01T06:40:34;1.90;82.59
75685;HTU21D;64298;46.050;38.164;2023-02-01T06:43:01;1.93;82.62
75685;HTU21D;64298;46.050;38.164;2023-02-01T06:45:27;1.92;82.65
75685;HTU21D;64298;46.050;38.164;2023-02-01T06:48:11;1.94;82.67
75685;HTU21D;64298;46.050;38.164;2023-02-01T06:50:37;1.94;82.61
75685;HTU21D;64298;46.050;38.164;2023-02-01T06:53:03;1.95;82.62
75685;HTU21D;64298;46.050;38.164;2023-02-01T06:55:29;1.99;82.68
75685;HTU21D;64298;46.050;38.164;2023-02-01T06:57:55;2.05;82.68
75685;HTU21D;64298;46.050;38.164;2023-02-01T07:00:22;2.11;82.60
75685;HTU21D;64298;46.050;38.164;2023-02-01T07:02:48;2.15;82.52
75685;HTU21D;64298;46.050;38.164;2023-02-01T07:05:15;2.20;82.46
75685;HTU21D;64298;46.050;38.164;2023-02-01T07:07:41;2.25;82.48
75685;HTU21D;64298;46.050;38.164;2023-02-01T07:10:07;2.29;82.37
75685;HTU21D;64298;46.050;38.164;2023-02-01T07:12:33;2.32;82.36
75685;HTU21D;64298;46.050;38.164;2023-02-01T07:14:59;2.36;82.32
75685;HTU21D;64298;46.050;38.164;2023-02-01T07:17:27;2.40;82.32
75685;HTU21D;64298;46.050;38.164;2023-02-01T07:19:55;2.44;82.25
75685;HTU21D;64298;46.050;38.164;2023-02-01T07:22:22;2.45;82.15
75685;HTU21D;64298;46.050;38.164;2023-02-01T07:24:48;2.44;82.04
75685;HTU21D;64298;46.050;38.164;2023-02-01T07:27:14;2.41;82.12
75685;HTU21D;64298;46.050;38.164;2023-02-01T07:29:40;2.40;82.19
75685;HTU21D;64298;46.050;38.164;2023-02-01T07:32:06;2.40;82.24
75685;HTU21D;64298;46.050;38.164;2023-02-01T07:34:32;2.42;82.29
75685;HTU21D;64298;46.050;38.164;2023-02-01T07:36:59;2.44;82.33
75685;HTU21D;64298;46.050;38.164;2023-02-01T07:39:25;2.49;82.29
75685;HTU21D;64298;46.050;38.164;2023-02-01T07:41:53;2.51;82.17
75685;HTU21D;64298;46.050;38.164;2023-02-01T07:44:19;2.45;82.20
75685;HTU21D;64298;46.050;38.164;2023-02-01T07:46:49;2.41;82.33
75685;HTU21D;64298;46.050;38.164;2023-02-01T07:49:15;2.41;82.42
75685;HTU21D;64298;46.050;38.164;2023-02-01T07:51:40;2.43;82.41
75685;HTU21D;64298;46.050;38.164;2023-02-01T07:54:06;2.42;82.37
75685;HTU21D;64298;46.050;38.164;2023-02-01T07:56:32;2.41;82.51
75685;HTU21D;64298;46.050;38.164;2023-02-01T07:58:58;2.40;82.54
75685;HTU21D;64298;46.050;38.164;2023-02-01T08:01:27;2.43;82.61
75685;HTU21D;64298;46.050;38.164;2023-02-01T08:03:55;2.50;82.58
75685;HTU21D;64298;46.050;38.164;2023-02-01T08:06:22;2.55;82.52
75685;HTU21D;64298;46.050;38.164;2023-02-01T08:08:49;2.61;82.53
75685;HTU21D;64298;46.050;38.164;2023-02-01T08:11:16;2.65;82.29
75685;HTU21D;64298;46.050;38.164;2023-02-01T08:13:43;2.67;82.20
75685;HTU21D;64298;46.050;38.164;2023-02-01T08:16:10;2.71;82.20
75685;HTU21D;64298;46.050;38.164;2023-02-01T08:18:38;2.70;82.10
75685;HTU21D;64298;46.050;38.164;2023-02-01T08:21:06;2.73;82.13
75685;HTU21D;64298;46.050;38.164;2023-02-01T08:23:50;2.75;82.04
75685;HTU21D;64298;46.050;38.164;2023-02-01T08:26:22;2.74;82.07
75685;HTU21D;64298;46.050;38.164;2023-02-01T08:29:09;2.75;82.13
75685;HTU21D;64298;46.050;38.164;2023-02-01T08:31:37;2.73;82.20
75685;HTU21D;64298;46.050;38.164;2023-02-01T08:34:06;2.78;82.26
75685;HTU21D;64298;46.050;38.164;2023-02-01T08:36:34;2.81;82.26
75685;HTU21D;64298;46.050;38.164;2023-02-01T08:39:00;2.85;82.29
75685;HTU21D;64298;46.050;38.164;2023-02-01T08:41:29;2.90;82.20
75685;HTU21D;64298;46.050;38.164;2023-02-01T08:43:56;2.96;82.14
75685;HTU21D;64298;46.050;38.164;2023-02-01T08:46:23;2.99;82.13
75685;HTU21D;64298;46.050;38.164;2023-02-01T08:48:49;3.03;82.06
75685;HTU21D;64298;46.050;38.164;2023-02-01T08:51:17;3.08;82.01
75685;HTU21D;64298;46.050;38.164;2023-02-01T08:53:43;3.12;82.03
75685;HTU21D;64298;46.050;38.164;2023-02-01T08:56:11;3.20;82.00
75685;HTU21D;64298;46.050;38.164;2023-02-01T08:58:37;3.28;81.84
75685;HTU21D;64298;46.050;38.164;2023-02-01T09:01:05;3.33;81.76
75685;HTU21D;64298;46.050;38.164;2023-02-01T09:03:31;3.38;81.71
75685;HTU21D;64298;46.050;38.164;2023-02-01T09:06:06;3.46;81.56
75685;HTU21D;64298;46.050;38.164;2023-02-01T09:08:33;3.48;81.37
75685;HTU21D;64298;46.050;38.164;2023-02-01T09:11:12;3.50;81.45
75685;HTU21D;64298;46.050;38.164;2023-02-01T09:13:38;3.55;81.43
75685;HTU21D;64298;46.050;38.164;2023-02-01T09:16:04;3.57;81.35
75685;HTU21D;64298;46.050;38.164;2023-02-01T09:18:30;3.64;81.26
75685;HTU21D;64298;46.050;38.164;2023-02-01T09:20:56;3.68;81.10
75685;HTU21D;64298;46.050;38.164;2023-02-01T09:23:41;3.71;80.94
75685;HTU21D;64298;46.050;38.164;2023-02-01T09:26:07;3.77;80.94
75685;HTU21D;64298;46.050;38.164;2023-02-01T09:28:33;3.78;80.75
75685;HTU21D;64298;46.050;38.164;2023-02-01T09:31:18;3.76;80.67
75685;HTU21D;64298;46.050;38.164;2023-02-01T09:33:44;3.80;80.75
75685;HTU21D;64298;46.050;38.164;2023-02-01T09:36:10;3.83;80.66
75685;HTU21D;64298;46.050;38.164;2023-02-01T09:38:36;3.83;80.58
75685;HTU21D;64298;46.050;38.164;2023-02-01T09:41:10;3.80;80.63
75685;HTU21D;64298;46.050;38.164;2023-02-01T09:43:53;3.80;80.59
75685;HTU21D;64298;46.050;38.164;2023-02-01T09:46:27;3.78;80.65
75685;HTU21D;64298;46.050;38.164;2023-02-01T09:49:17;3.86;80.74
75685;HTU21D;64298;46.050;38.164;2023-02-01T09:51:46;3.92;80.54
75685;HTU21D;64298;46.050;38.164;2023-02-01T09:54:17;3.99;80.43
75685;HTU21D;64298;46.050;38.164;2023-02-01T09:57:04;4.02;80.24
75685;HTU21D;64298;46.050;38.164;2023-02-01T09:59:38;4.08;80.13
75685;HTU21D;64298;46.050;38.164;2023-02-01T10:02:20;4.12;80.03
75685;HTU21D;64298;46.050;38.164;2023-02-01T10:04:49;4.13;79.88
75685;HTU21D;64298;46.050;38.164;2023-02-01T10:12:56;4.06;79.85
75685;HTU21D;64298;46.050;38.164;2023-02-01T10:19:14;4.07;79.75
75685;HTU21D;64298;46.050;38.164;2023-02-01T10:21:32;4.12;79.69
75685;HTU21D;64298;46.050;38.164;2023-02-01T10:27:21;4.15;79.44
75685;HTU21D;64298;46.050;38.164;2023-02-01T10:29:54;4.16;79.48
75685;HTU21D;64298;46.050;38.164;2023-02-01T10:32:40;4.26;79.30
75685;HTU21D;64298;46.050;38.164;2023-02-01T10:35:17;4.31;79.11
75685;HTU21D;64298;46.050;38.164;2023-02-01T10:37:44;4.32;78.85
75685;HTU21D;64298;46.050;38.164;2023-02-01T10:40:21;4.30;78.88
75685;HTU21D;64298;46.050;38.164;2023-02-01T10:42:59;4.35;79.04
75685;HTU21D;64298;46.050;38.164;2023-02-01T10:45:29;4.43;78.91
75685;HTU21D;64298;46.050;38.164;2023-02-01T10:47:57;4.54;78.50
75685;HTU21D;64298;46.050;38.164;2023-02-01T10:50:55;4.61;78.28
75685;HTU21D;64298;46.050;38.164;2023-02-01T10:53:30;4.66;78.19
75685;HTU21D;64298;46.050;38.164;2023-02-01T10:55:57;4.65;78.11
75685;HTU21D;64298;46.050;38.164;2023-02-01T10:58:32;4.65;78.11
75685;HTU21D;64298;46.050;38.164;2023-02-01T11:01:02;4.65;78.23
75685;HTU21D;64298;46.050;38.164;2023-02-01T11:06:01;4.67;78.31
75685;HTU21D;64298;46.050;38.164;2023-02-01T11:08:28;4.74;78.23
75685;HTU21D;64298;46.050;38.164;2023-02-01T11:11:01;4.74;78.21
75685;HTU21D;64298;46.050;38.164;2023-02-01T11:13:31;4.78;78.18
75685;HTU21D;64298;46.050;38.164;2023-02-01T11:15:57;4.79;78.00
75685;HTU21D;64298;46.050;38.164;2023-02-01T11:18:41;4.75;78.03
75685;HTU21D;64298;46.050;38.164;2023-02-01T11:21:09;4.77;78.14
75685;HTU21D;64298;46.050;38.164;2023-02-01T11:23:42;4.80;78.08
75685;HTU21D;64298;46.050;38.164;2023-02-01T11:26:21;4.78;77.89
75685;HTU21D;64298;46.050;38.164;2023-02-01T11:28:59;4.73;77.74
75685;HTU21D;64298;46.050;38.164;2023-02-01T11:31:26;4.67;77.96
75685;HTU21D;64298;46.050;38.164;2023-02-01T11:33:57;4.62;77.89
75685;HTU21D;64298;46.050;38.164;2023-02-01T11:36:27;4.51;77.80
75685;HTU21D;64298;46.050;38.164;2023-02-01T11:42:02;4.22;78.25
75685;HTU21D;64298;46.050;38.164;2023-02-01T11:44:37;4.15;78.56
75685;HTU21D;64298;46.050;38.164;2023-02-01T11:47:26;3.99;78.75
75685;HTU21D;64298;46.050;38.164;2023-02-01T11:50:02;3.87;79.01
75685;HTU21D;64298;46.050;38.164;2023-02-01T11:53:00;3.75;79.33
75685;HTU21D;64298;46.050;38.164;2023-02-01T11:55:56;3.68;79.70
75685;HTU21D;64298;46.050;38.164;2023-02-01T12:06:50;3.86;79.75
75685;HTU21D;64298;46.050;38.164;2023-02-01T12:25:57;4.16;79.16
75685;HTU21D;64298;46.050;38.164;2023-02-01T12:31:46;4.17;79.13
75685;HTU21D;64298;46.050;38.164;2023-02-01T12:34:26;4.15;79.01
75685;HTU21D;64298;46.050;38.164;2023-02-01T12:37:20;4.16;79.11
75685;HTU21D;64298;46.050;38.164;2023-02-01T12:42:43;4.23;79.11
75685;HTU21D;64298;46.050;38.164;2023-02-01T12:45:26;4.27;79.03
75685;HTU21D;64298;46.050;38.164;2023-02-01T12:48:01;4.28;78.95
75685;HTU21D;64298;46.050;38.164;2023-02-01T12:50:57;4.31;78.98
75685;HTU21D;64298;46.050;38.164;2023-02-01T12:59:04;4.37;78.93
75685;HTU21D;64298;46.050;38.164;2023-02-01T13:01:53;4.35;78.97
75685;HTU21D;64298;46.050;38.164;2023-02-01T13:05:37;4.33;79.03
75685;HTU21D;64298;46.050;38.164;2023-02-01T13:07:36;4.34;79.07
75685;HTU21D;64298;46.050;38.164;2023-02-01T13:10:33;4.33;79.09
75685;HTU21D;64298;46.050;38.164;2023-02-01T13:15:44;4.21;79.03
75685;HTU21D;64298;46.050;38.164;2023-02-01T13:18:18;4.14;79.24
75685;HTU21D;64298;46.050;38.164;2023-02-01T13:20:58;4.05;79.40
75685;HTU21D;64298;46.050;38.164;2023-02-01T13:23:48;4.01;79.59
75685;HTU21D;64298;46.050;38.164;2023-02-01T13:26:14;4.01;79.72
75685;HTU21D;64298;46.050;38.164;2023-02-01T13:28:46;3.89;79.75
75685;HTU21D;64298;46.050;38.164;2023-02-01T13:39:43;3.75;80.33
75685;HTU21D;64298;46.050;38.164;2023-02-01T13:42:23;3.78;80.43
75685;HTU21D;64298;46.050;38.164;2023-02-01T13:45:03;3.77;80.52
75685;HTU21D;64298;46.050;38.164;2023-02-01T13:47:41;3.70;80.74
75685;HTU21D;64298;46.050;38.164;2023-02-01T13:53:03;3.62;81.11
75685;HTU21D;64298;46.050;38.164;2023-02-01T13:55:32;3.60;80.98
75685;HTU21D;64298;46.050;38.164;2023-02-01T13:58:00;3.56;81.10
75685;HTU21D;64298;46.050;38.164;2023-02-01T14:00:47;3.47;81.20
75685;HTU21D;64298;46.050;38.164;2023-02-01T14:03:20;3.43;81.47
75685;HTU21D;64298;46.050;38.164;2023-02-01T14:08:14;3.32;81.79
75685;HTU21D;64298;46.050;38.164;2023-02-01T14:10:53;3.29;81.85
75685;HTU21D;64298;46.050;38.164;2023-02-01T14:13:38;3.27;81.99
75685;HTU21D;64298;46.050;38.164;2023-02-01T14:21:30;3.25;82.04
75685;HTU21D;64298;46.050;38.164;2023-02-01T14:24:01;3.25;82.06
75685;HTU21D;64298;46.050;38.164;2023-02-01T14:42:33;3.13;82.58
75685;HTU21D;64298;46.050;38.164;2023-02-01T14:47:45;3.08;82.77
75685;HTU21D;64298;46.050;38.164;2023-02-01T14:55:40;3.03;82.91
75685;HTU21D;64298;46.050;38.164;2023-02-01T15:00:59;2.98;83.12
75685;HTU21D;64298;46.050;38.164;2023-02-01T15:06:33;2.89;83.27
75685;HTU21D;64298;46.050;38.164;2023-02-01T15:11:30;2.87;83.65
75685;HTU21D;64298;46.050;38.164;2023-02-01T15:13:56;2.87;83.72
75685;HTU21D;64298;46.050;38.164;2023-02-01T15:16:25;2.89;83.70
75685;HTU21D;64298;46.050;38.164;2023-02-01T15:19:07;2.90;83.68
75685;HTU21D;64298;46.050;38.164;2023-02-01T15:21:46;2.93;83.54
75685;HTU21D;64298;46.050;38.164;2023-02-01T15:24:18;2.94;83.52
75685;HTU21D;64298;46.050;38.164;2023-02-01T15:26:44;2.96;83.40
75685;HTU21D;64298;46.050;38.164;2023-02-01T15:29:11;2.95;83.36
75685;HTU21D;64298;46.050;38.164;2023-02-01T15:31:40;2.97;83.34
75685;HTU21D;64298;46.050;38.164;2023-02-01T15:34:07;3.01;83.28
75685;HTU21D;64298;46.050;38.164;2023-02-01T15:36:33;3.05;83.16
75685;HTU21D;64298;46.050;38.164;2023-02-01T15:39:24;3.05;83.05
75685;HTU21D;64298;46.050;38.164;2023-02-01T15:42:00;3.04;82.93
75685;HTU21D;64298;46.050;38.164;2023-02-01T15:44:33;3.02;82.94
75685;HTU21D;64298;46.050;38.164;2023-02-01T15:47:04;3.04;82.97
75685;HTU21D;64298;46.050;38.164;2023-02-01T15:49:36;3.11;82.94
75685;HTU21D;64298;46.050;38.164;2023-02-01T15:52:08;3.14;82.82
75685;HTU21D;64298;46.050;38.164;2023-02-01T15:54:45;3.15;82.65
75685;HTU21D;64298;46.050;38.164;2023-02-01T15:57:36;3.15;82.53
75685;HTU21D;64298;46.050;38.164;2023-02-01T16:00:08;3.15;82.47
75685;HTU21D;64298;46.050;38.164;2023-02-01T16:03:01;3.16;82.36
75685;HTU21D;64298;46.050;38.164;2023-02-01T16:05:36;3.16;82.23
75685;HTU21D;64298;46.050;38.164;2023-02-01T16:10:30;3.17;82.10
75685;HTU21D;64298;46.050;38.164;2023-02-01T16:12:56;3.16;82.01
75685;HTU21D;64298;46.050;38.164;2023-02-01T16:15:26;3.14;81.93
75685;HTU21D;64298;46.050;38.164;2023-02-01T16:17:55;3.11;81.80
75685;HTU21D;64298;46.050;38.164;2023-02-01T16:20:21;3.08;81.79
75685;HTU21D;64298;46.050;38.164;2023-02-01T16:22:47;3.04;81.73
75685;HTU21D;64298;46.050;38.164;2023-02-01T16:25:13;3.01;81.81
75685;HTU21D;64298;46.050;38.164;2023-02-01T16:27:39;3.00;81.81
75685;HTU21D;64298;46.050;38.164;2023-02-01T16:30:05;2.99;81.75
75685;HTU21D;64298;46.050;38.164;2023-02-01T16:32:36;3.01;81.80
75685;HTU21D;64298;46.050;38.164;2023-02-01T16:35:12;3.03;81.75
75685;HTU21D;64298;46.050;38.164;2023-02-01T16:37:41;3.02;81.78
75685;HTU21D;64298;46.050;38.164;2023-02-01T16:40:16;2.98;81.72
75685;HTU21D;64298;46.050;38.164;2023-02-01T16:42:42;2.97;81.68
75685;HTU21D;64298;46.050;38.164;2023-02-01T16:45:09;2.95;81.73
75685;HTU21D;64298;46.050;38.164;2023-02-01T16:47:37;2.96;81.65
75685;HTU21D;64298;46.050;38.164;2023-02-01T16:50:04;2.95;81.60
75685;HTU21D;64298;46.050;38.164;2023-02-01T16:52:31;2.95;81.58
75685;HTU21D;64298;46.050;38.164;2023-02-01T16:54:56;2.93;81.54
75685;HTU21D;64298;46.050;38.164;2023-02-01T16:57:22;2.93;81.57
75685;HTU21D;64298;46.050;38.164;2023-02-01T16:59:49;2.93;81.55
75685;HTU21D;64298;46.050;38.164;2023-02-01T17:02:18;2.95;81.53
75685;HTU21D;64298;46.050;38.164;2023-02-01T17:04:49;2.96;81.41
75685;HTU21D;64298;46.050;38.164;2023-02-01T17:07:16;2.97;81.32
75685;HTU21D;64298;46.050;38.164;2023-02-01T17:10:02;2.96;81.18
75685;HTU21D;64298;46.050;38.164;2023-02-01T17:12:31;2.97;80.98
75685;HTU21D;64298;46.050;38.164;2023-02-01T17:14:59;2.97;80.91
75685;HTU21D;64298;46.050;38.164;2023-02-01T17:17:43;3.00;80.66
75685;HTU21D;64298;46.050;38.164;2023-02-01T17:20:20;2.98;80.29
75685;HTU21D;64298;46.050;38.164;2023-02-01T17:22:46;2.98;80.16
75685;HTU21D;64298;46.050;38.164;2023-02-01T17:25:18;2.97;79.95
75685;HTU21D;64298;46.050;38.164;2023-02-01T17:27:44;2.97;79.85
75685;HTU21D;64298;46.050;38.164;2023-02-01T17:30:11;2.97;79.65
75685;HTU21D;64298;46.050;38.164;2023-02-01T17:32:56;2.99;79.66
75685;HTU21D;64298;46.050;38.164;2023-02-01T17:35:24;3.03;79.66
75685;HTU21D;64298;46.050;38.164;2023-02-01T17:37:51;3.04;79.68
75685;HTU21D;64298;46.050;38.164;2023-02-01T17:40:17;3.04;79.50
75685;HTU21D;64298;46.050;38.164;2023-02-01T17:42:44;3.08;79.57
75685;HTU21D;64298;46.050;38.164;2023-02-01T17:45:36;3.08;79.25
75685;HTU21D;64298;46.050;38.164;2023-02-01T17:48:07;3.06;79.17
75685;HTU21D;64298;46.050;38.164;2023-02-01T17:50:36;3.08;79.31
75685;HTU21D;64298;46.050;38.164;2023-02-01T17:53:04;3.09;79.04
75685;HTU21D;64298;46.050;38.164;2023-02-01T17:55:34;3.08;79.14